Аэропорт: Гумрак. Волгоград

ICAO: URWW

METAR:
2020-08-12 05:30:00
URWW 120530Z 19002MPS 160V300 CAVOK 24/09 Q1009 R06/010060 NOSIG
METAR:
2020-08-12 01:59:00
TAF URWW 120159Z 1203/1212 14003G08MPS 9999 SCT030CB BKN100 TEMPO 1203/1206 10003G08MPS PROB40 TEMPO 1203/1206 -TSRAGR TEMPO 1206/1212 17008G15MPS -TSRAGR